sensor_id;sensor_type;location;lat;lon;timestamp;pressure;altitude;pressure_sealevel;temperature;humidity
21826;BME280;11075;47.944;11.776;2023-04-08T00:00:50;94806.69;;;1.22;39.51
21826;BME280;11075;47.944;11.776;2023-04-08T00:03:17;94797.41;;;1.19;39.90
21826;BME280;11075;47.944;11.776;2023-04-08T00:05:44;94799.97;;;1.34;39.79
21826;BME280;11075;47.944;11.776;2023-04-08T00:08:11;94753.28;;;0.14;42.07
21826;BME280;11075;47.944;11.776;2023-04-08T00:10:39;94804.31;;;1.20;39.56
21826;BME280;11075;47.944;11.776;2023-04-08T00:13:06;94810.91;;;1.28;39.58
21826;BME280;11075;47.944;11.776;2023-04-08T00:15:33;94806.59;;;0.93;40.20
21826;BME280;11075;47.944;11.776;2023-04-08T00:17:59;94791.97;;;-0.86;44.93
21826;BME280;11075;47.944;11.776;2023-04-08T00:20:27;94808.97;;;-0.57;44.23
21826;BME280;11075;47.944;11.776;2023-04-08T00:22:54;94811.63;;;-0.36;45.95
21826;BME280;11075;47.944;11.776;2023-04-08T00:25:21;94809.00;;;0.84;41.01
21826;BME280;11075;47.944;11.776;2023-04-08T00:27:51;94808.78;;;0.75;40.69
21826;BME280;11075;47.944;11.776;2023-04-08T00:30:18;94824.00;;;1.53;39.37
21826;BME280;11075;47.944;11.776;2023-04-08T00:32:45;94801.53;;;-0.04;42.21
21826;BME280;11075;47.944;11.776;2023-04-08T00:35:12;94810.81;;;-0.12;42.40
21826;BME280;11075;47.944;11.776;2023-04-08T00:37:39;94831.34;;;1.27;39.20
21826;BME280;11075;47.944;11.776;2023-04-08T00:40:07;94857.41;;;2.32;37.18
21826;BME280;11075;47.944;11.776;2023-04-08T00:42:34;94788.25;;;0.16;41.49
21826;BME280;11075;47.944;11.776;2023-04-08T00:45:01;94792.72;;;0.31;41.58
21826;BME280;11075;47.944;11.776;2023-04-08T00:47:29;94829.84;;;1.11;39.49
21826;BME280;11075;47.944;11.776;2023-04-08T00:49:56;94790.09;;;0.21;41.60
21826;BME280;11075;47.944;11.776;2023-04-08T00:52:23;94809.94;;;0.49;41.34
21826;BME280;11075;47.944;11.776;2023-04-08T00:54:51;94839.41;;;1.07;39.09
21826;BME280;11075;47.944;11.776;2023-04-08T00:57:18;94828.28;;;0.10;41.96
21826;BME280;11075;47.944;11.776;2023-04-08T00:59:45;94831.94;;;0.49;40.95
21826;BME280;11075;47.944;11.776;2023-04-08T01:02:18;94833.56;;;0.30;41.24
21826;BME280;11075;47.944;11.776;2023-04-08T01:05:07;94825.78;;;0.69;41.12
21826;BME280;11075;47.944;11.776;2023-04-08T01:07:43;94817.03;;;0.69;41.32
21826;BME280;11075;47.944;11.776;2023-04-08T01:10:25;94801.00;;;-0.01;43.03
21826;BME280;11075;47.944;11.776;2023-04-08T01:12:57;94817.19;;;-0.28;44.24
21826;BME280;11075;47.944;11.776;2023-04-08T01:15:27;94796.00;;;-0.48;44.02
21826;BME280;11075;47.944;11.776;2023-04-08T01:17:56;94814.78;;;-0.09;43.53
21826;BME280;11075;47.944;11.776;2023-04-08T01:20:25;94804.91;;;0.42;43.24
21826;BME280;11075;47.944;11.776;2023-04-08T01:25:37;94803.06;;;0.43;40.95
21826;BME280;11075;47.944;11.776;2023-04-08T01:28:12;94805.84;;;0.82;41.25
21826;BME280;11075;47.944;11.776;2023-04-08T01:30:40;94795.91;;;0.33;41.54
21826;BME280;11075;47.944;11.776;2023-04-08T01:33:12;94816.28;;;0.53;41.10
21826;BME280;11075;47.944;11.776;2023-04-08T01:35:41;94822.09;;;0.60;41.16
21826;BME280;11075;47.944;11.776;2023-04-08T01:38:10;94799.41;;;0.13;42.48
21826;BME280;11075;47.944;11.776;2023-04-08T01:40:40;94786.22;;;-0.37;44.00
21826;BME280;11075;47.944;11.776;2023-04-08T01:43:09;94822.38;;;0.53;41.52
21826;BME280;11075;47.944;11.776;2023-04-08T01:45:37;94817.25;;;0.77;40.63
21826;BME280;11075;47.944;11.776;2023-04-08T01:48:04;94825.66;;;1.00;40.17
21826;BME280;11075;47.944;11.776;2023-04-08T01:50:33;94812.94;;;-0.39;42.34
21826;BME280;11075;47.944;11.776;2023-04-08T01:53:02;94799.94;;;-0.76;43.42
21826;BME280;11075;47.944;11.776;2023-04-08T01:55:33;94829.03;;;0.36;41.86
21826;BME280;11075;47.944;11.776;2023-04-08T01:58:00;94822.69;;;0.32;40.92
21826;BME280;11075;47.944;11.776;2023-04-08T02:00:30;94825.09;;;0.13;41.81
21826;BME280;11075;47.944;11.776;2023-04-08T02:02:58;94795.13;;;-0.89;45.15
21826;BME280;11075;47.944;11.776;2023-04-08T02:05:26;94840.66;;;0.65;40.32
21826;BME280;11075;47.944;11.776;2023-04-08T02:07:53;94807.38;;;-0.32;42.19
21826;BME280;11075;47.944;11.776;2023-04-08T02:10:20;94798.66;;;-0.43;43.44
21826;BME280;11075;47.944;11.776;2023-04-08T02:12:47;94820.63;;;-0.22;42.38
21826;BME280;11075;47.944;11.776;2023-04-08T02:15:14;94811.09;;;-0.49;42.72
21826;BME280;11075;47.944;11.776;2023-04-08T02:17:48;94827.16;;;0.57;39.99
21826;BME280;11075;47.944;11.776;2023-04-08T02:20:23;94797.84;;;-0.33;42.64
21826;BME280;11075;47.944;11.776;2023-04-08T02:22:59;94819.00;;;0.07;41.76
21826;BME280;11075;47.944;11.776;2023-04-08T02:25:29;94825.41;;;-0.19;41.56
21826;BME280;11075;47.944;11.776;2023-04-08T02:27:58;94813.75;;;-0.18;41.99
21826;BME280;11075;47.944;11.776;2023-04-08T02:30:26;94829.34;;;0.09;41.55
21826;BME280;11075;47.944;11.776;2023-04-08T02:32:55;94828.81;;;0.07;41.00
21826;BME280;11075;47.944;11.776;2023-04-08T02:35:24;94816.63;;;0.16;41.16
21826;BME280;11075;47.944;11.776;2023-04-08T02:37:53;94788.78;;;-0.88;42.74
21826;BME280;11075;47.944;11.776;2023-04-08T02:40:28;94836.69;;;0.63;40.30
21826;BME280;11075;47.944;11.776;2023-04-08T02:42:56;94836.25;;;1.00;39.29
21826;BME280;11075;47.944;11.776;2023-04-08T02:45:27;94810.22;;;0.32;40.55
21826;BME280;11075;47.944;11.776;2023-04-08T02:47:56;94791.47;;;-0.73;42.56
21826;BME280;11075;47.944;11.776;2023-04-08T02:50:25;94809.22;;;-0.53;42.92
21826;BME280;11075;47.944;11.776;2023-04-08T02:52:52;94833.59;;;-0.11;41.96
21826;BME280;11075;47.944;11.776;2023-04-08T02:55:19;94837.00;;;0.46;40.80
21826;BME280;11075;47.944;11.776;2023-04-08T02:57:46;94837.50;;;0.58;39.53
21826;BME280;11075;47.944;11.776;2023-04-08T03:00:14;94833.81;;;0.44;39.49
21826;BME280;11075;47.944;11.776;2023-04-08T03:02:41;94823.47;;;0.47;39.24
21826;BME280;11075;47.944;11.776;2023-04-08T03:05:09;94778.38;;;-1.88;44.44
21826;BME280;11075;47.944;11.776;2023-04-08T03:07:36;94805.50;;;-1.50;43.42
21826;BME280;11075;47.944;11.776;2023-04-08T03:10:05;94800.16;;;-2.13;45.78
21826;BME280;11075;47.944;11.776;2023-04-08T03:12:32;94836.38;;;-1.03;43.18
21826;BME280;11075;47.944;11.776;2023-04-08T03:14:59;94812.59;;;-0.88;42.51
21826;BME280;11075;47.944;11.776;2023-04-08T03:17:27;94843.94;;;-0.14;40.58
21826;BME280;11075;47.944;11.776;2023-04-08T03:19:54;94846.03;;;0.25;40.27
21826;BME280;11075;47.944;11.776;2023-04-08T03:22:21;94821.16;;;-0.56;41.38
21826;BME280;11075;47.944;11.776;2023-04-08T03:24:49;94856.78;;;0.79;38.55
21826;BME280;11075;47.944;11.776;2023-04-08T03:27:16;94828.47;;;-0.88;42.00
21826;BME280;11075;47.944;11.776;2023-04-08T03:29:43;94853.97;;;0.19;39.63
21826;BME280;11075;47.944;11.776;2023-04-08T03:32:12;94824.16;;;-1.15;42.88
21826;BME280;11075;47.944;11.776;2023-04-08T03:34:39;94839.63;;;-0.81;42.13
21826;BME280;11075;47.944;11.776;2023-04-08T03:37:06;94839.13;;;-0.58;40.97
21826;BME280;11075;47.944;11.776;2023-04-08T03:39:34;94843.66;;;-0.13;40.06
21826;BME280;11075;47.944;11.776;2023-04-08T03:42:01;94847.03;;;0.54;38.33
21826;BME280;11075;47.944;11.776;2023-04-08T03:44:28;94804.47;;;-0.46;40.93
21826;BME280;11075;47.944;11.776;2023-04-08T03:46:55;94820.78;;;-0.95;42.83
21826;BME280;11075;47.944;11.776;2023-04-08T03:49:23;94835.44;;;-0.42;41.52
21826;BME280;11075;47.944;11.776;2023-04-08T03:51:50;94834.94;;;-0.13;41.64
21826;BME280;11075;47.944;11.776;2023-04-08T03:54:17;94818.38;;;-1.01;43.24
21826;BME280;11075;47.944;11.776;2023-04-08T03:56:43;94812.75;;;-1.25;43.29
21826;BME280;11075;47.944;11.776;2023-04-08T03:59:10;94809.56;;;-1.27;43.85
21826;BME280;11075;47.944;11.776;2023-04-08T04:01:38;94837.56;;;-0.54;42.54
21826;BME280;11075;47.944;11.776;2023-04-08T04:04:08;94828.44;;;-0.98;43.12
21826;BME280;11075;47.944;11.776;2023-04-08T04:06:35;94860.75;;;0.81;39.88
21826;BME280;11075;47.944;11.776;2023-04-08T04:09:02;94865.22;;;0.91;39.18
21826;BME280;11075;47.944;11.776;2023-04-08T04:11:29;94846.00;;;0.45;40.56
21826;BME280;11075;47.944;11.776;2023-04-08T04:13:55;94829.38;;;-0.12;42.25
21826;BME280;11075;47.944;11.776;2023-04-08T04:16:23;94856.63;;;0.14;41.37
21826;BME280;11075;47.944;11.776;2023-04-08T04:18:51;94849.47;;;0.30;41.26
21826;BME280;11075;47.944;11.776;2023-04-08T04:21:20;94818.78;;;-0.37;42.75
21826;BME280;11075;47.944;11.776;2023-04-08T04:23:46;94831.97;;;-0.78;43.94
21826;BME280;11075;47.944;11.776;2023-04-08T04:26:13;94855.56;;;0.26;42.80
21826;BME280;11075;47.944;11.776;2023-04-08T04:28:40;94849.69;;;0.39;41.30
21826;BME280;11075;47.944;11.776;2023-04-08T04:31:14;94838.31;;;-0.68;44.32
21826;BME280;11075;47.944;11.776;2023-04-08T04:33:43;94868.66;;;0.92;40.66
21826;BME280;11075;47.944;11.776;2023-04-08T04:36:10;94857.88;;;0.73;40.28
21826;BME280;11075;47.944;11.776;2023-04-08T04:38:37;94873.13;;;1.56;38.63
21826;BME280;11075;47.944;11.776;2023-04-08T04:41:05;94847.53;;;0.71;39.96
21826;BME280;11075;47.944;11.776;2023-04-08T04:43:32;94845.75;;;0.26;41.01
21826;BME280;11075;47.944;11.776;2023-04-08T04:45:59;94880.16;;;1.80;38.21
21826;BME280;11075;47.944;11.776;2023-04-08T04:48:26;94868.13;;;1.49;38.41
21826;BME280;11075;47.944;11.776;2023-04-08T04:50:58;94848.03;;;0.73;40.05
21826;BME280;11075;47.944;11.776;2023-04-08T04:53:25;94837.78;;;0.31;41.25
21826;BME280;11075;47.944;11.776;2023-04-08T04:55:53;94836.19;;;0.30;41.08
21826;BME280;11075;47.944;11.776;2023-04-08T04:58:20;94871.97;;;1.23;39.79
21826;BME280;11075;47.944;11.776;2023-04-08T05:00:47;94888.84;;;1.91;38.27
21826;BME280;11075;47.944;11.776;2023-04-08T05:03:14;94856.75;;;1.38;39.31
21826;BME280;11075;47.944;11.776;2023-04-08T05:05:42;94837.41;;;0.83;40.63
21826;BME280;11075;47.944;11.776;2023-04-08T05:08:09;94852.56;;;0.73;40.29
21826;BME280;11075;47.944;11.776;2023-04-08T05:10:36;94891.19;;;1.98;38.04
21826;BME280;11075;47.944;11.776;2023-04-08T05:13:03;94868.38;;;1.58;38.90
21826;BME280;11075;47.944;11.776;2023-04-08T05:15:31;94880.41;;;1.84;37.95
21826;BME280;11075;47.944;11.776;2023-04-08T05:17:58;94867.78;;;1.66;38.52
21826;BME280;11075;47.944;11.776;2023-04-08T05:20:25;94828.28;;;0.10;41.86
21826;BME280;11075;47.944;11.776;2023-04-08T05:22:52;94888.16;;;1.75;38.69
21826;BME280;11075;47.944;11.776;2023-04-08T05:25:19;94890.19;;;2.23;37.43
21826;BME280;11075;47.944;11.776;2023-04-08T05:27:46;94870.41;;;1.71;38.75
21826;BME280;11075;47.944;11.776;2023-04-08T05:30:13;94877.91;;;1.59;39.20
21826;BME280;11075;47.944;11.776;2023-04-08T05:32:40;94873.78;;;1.32;39.94
21826;BME280;11075;47.944;11.776;2023-04-08T05:35:07;94870.53;;;1.45;40.20
21826;BME280;11075;47.944;11.776;2023-04-08T05:37:35;94888.13;;;1.80;39.89
21826;BME280;11075;47.944;11.776;2023-04-08T05:40:02;94886.00;;;1.82;40.44
21826;BME280;11075;47.944;11.776;2023-04-08T05:42:29;94842.34;;;0.00;44.08
21826;BME280;11075;47.944;11.776;2023-04-08T05:44:57;94878.88;;;0.49;43.53
21826;BME280;11075;47.944;11.776;2023-04-08T05:47:24;94897.97;;;2.14;40.26
21826;BME280;11075;47.944;11.776;2023-04-08T05:49:51;94877.50;;;2.14;40.47
21826;BME280;11075;47.944;11.776;2023-04-08T05:52:19;94885.91;;;2.27;39.96
21826;BME280;11075;47.944;11.776;2023-04-08T05:54:46;94879.59;;;1.39;42.51
21826;BME280;11075;47.944;11.776;2023-04-08T05:57:13;94893.78;;;2.08;41.12
21826;BME280;11075;47.944;11.776;2023-04-08T05:59:40;94886.69;;;2.56;40.07
21826;BME280;11075;47.944;11.776;2023-04-08T06:02:07;94902.97;;;2.21;41.13
21826;BME280;11075;47.944;11.776;2023-04-08T06:04:34;94876.19;;;0.64;44.65
21826;BME280;11075;47.944;11.776;2023-04-08T06:07:01;94861.00;;;0.85;43.49
21826;BME280;11075;47.944;11.776;2023-04-08T06:09:29;94895.50;;;2.23;42.23
21826;BME280;11075;47.944;11.776;2023-04-08T06:11:56;94893.59;;;2.57;41.20
21826;BME280;11075;47.944;11.776;2023-04-08T06:14:24;94906.56;;;2.64;41.13
21826;BME280;11075;47.944;11.776;2023-04-08T06:16:51;94902.88;;;1.58;43.98
21826;BME280;11075;47.944;11.776;2023-04-08T06:19:20;94895.66;;;1.68;43.23
21826;BME280;11075;47.944;11.776;2023-04-08T06:21:47;94892.34;;;1.37;44.02
21826;BME280;11075;47.944;11.776;2023-04-08T06:24:15;94896.91;;;1.27;44.59
21826;BME280;11075;47.944;11.776;2023-04-08T06:26:42;94871.69;;;0.60;45.44
21826;BME280;11075;47.944;11.776;2023-04-08T06:29:09;94889.19;;;1.30;44.31
21826;BME280;11075;47.944;11.776;2023-04-08T06:31:36;94901.19;;;2.98;40.71
21826;BME280;11075;47.944;11.776;2023-04-08T06:34:03;94877.50;;;2.43;41.69
21826;BME280;11075;47.944;11.776;2023-04-08T06:36:30;94889.97;;;1.85;43.44
21826;BME280;11075;47.944;11.776;2023-04-08T06:38:57;94891.66;;;3.16;40.23
21826;BME280;11075;47.944;11.776;2023-04-08T06:41:24;94881.16;;;3.24;40.14
21826;BME280;11075;47.944;11.776;2023-04-08T06:43:57;94871.00;;;1.97;42.81
21826;BME280;11075;47.944;11.776;2023-04-08T06:46:24;94854.09;;;0.89;44.24
21826;BME280;11075;47.944;11.776;2023-04-08T06:48:52;94897.53;;;3.36;39.97
21826;BME280;11075;47.944;11.776;2023-04-08T06:51:18;94887.59;;;1.83;43.18
21826;BME280;11075;47.944;11.776;2023-04-08T06:53:45;94890.16;;;3.71;40.01
21826;BME280;11075;47.944;11.776;2023-04-08T06:56:13;94887.06;;;2.44;42.65
21826;BME280;11075;47.944;11.776;2023-04-08T06:58:40;94885.53;;;1.21;44.42
21826;BME280;11075;47.944;11.776;2023-04-08T07:01:06;94907.94;;;3.94;39.43
21826;BME280;11075;47.944;11.776;2023-04-08T07:03:33;94903.91;;;3.78;39.77
21826;BME280;11075;47.944;11.776;2023-04-08T07:06:00;94870.00;;;2.22;42.49
21826;BME280;11075;47.944;11.776;2023-04-08T07:08:27;94893.34;;;1.51;44.36
21826;BME280;11075;47.944;11.776;2023-04-08T07:10:54;94900.06;;;3.04;40.75
21826;BME280;11075;47.944;11.776;2023-04-08T07:13:22;94909.81;;;3.94;39.46
21826;BME280;11075;47.944;11.776;2023-04-08T07:15:49;94922.44;;;4.39;38.56
21826;BME280;11075;47.944;11.776;2023-04-08T07:18:15;94884.22;;;3.55;40.01
21826;BME280;11075;47.944;11.776;2023-04-08T07:20:42;94909.22;;;4.48;38.79
21826;BME280;11075;47.944;11.776;2023-04-08T07:23:10;94920.00;;;4.89;38.34
21826;BME280;11075;47.944;11.776;2023-04-08T07:25:37;94900.94;;;3.98;39.87
21826;BME280;11075;47.944;11.776;2023-04-08T07:28:04;94911.72;;;4.26;39.37
21826;BME280;11075;47.944;11.776;2023-04-08T07:30:31;94895.03;;;3.64;40.00
21826;BME280;11075;47.944;11.776;2023-04-08T07:33:00;94911.16;;;4.61;39.34
21826;BME280;11075;47.944;11.776;2023-04-08T07:35:27;94889.19;;;3.43;40.71
21826;BME280;11075;47.944;11.776;2023-04-08T07:37:55;94892.34;;;3.45;41.46
21826;BME280;11075;47.944;11.776;2023-04-08T07:40:23;94911.91;;;3.97;40.65
21826;BME280;11075;47.944;11.776;2023-04-08T07:42:51;94903.88;;;3.40;41.32
21826;BME280;11075;47.944;11.776;2023-04-08T07:45:17;94915.63;;;2.63;43.30
21826;BME280;11075;47.944;11.776;2023-04-08T07:47:44;94923.56;;;1.66;43.70
21826;BME280;11075;47.944;11.776;2023-04-08T07:50:11;94921.81;;;0.66;45.38
21826;BME280;11075;47.944;11.776;2023-04-08T07:52:39;94934.50;;;0.74;44.10
21826;BME280;11075;47.944;11.776;2023-04-08T07:55:07;94928.00;;;2.48;41.30
21826;BME280;11075;47.944;11.776;2023-04-08T07:57:34;94937.34;;;3.47;39.74
21826;BME280;11075;47.944;11.776;2023-04-08T08:00:01;94918.25;;;3.39;40.05
21826;BME280;11075;47.944;11.776;2023-04-08T08:02:38;94907.97;;;2.85;41.14
21826;BME280;11075;47.944;11.776;2023-04-08T08:05:06;94911.72;;;2.55;42.08
21826;BME280;11075;47.944;11.776;2023-04-08T08:07:34;94934.38;;;3.72;40.64
21826;BME280;11075;47.944;11.776;2023-04-08T08:10:01;94905.41;;;2.46;42.16
21826;BME280;11075;47.944;11.776;2023-04-08T08:12:27;94921.13;;;1.74;44.66
21826;BME280;11075;47.944;11.776;2023-04-08T08:14:55;94930.50;;;0.92;46.07
21826;BME280;11075;47.944;11.776;2023-04-08T08:17:24;94939.63;;;1.35;44.84
21826;BME280;11075;47.944;11.776;2023-04-08T08:19:55;94951.75;;;2.40;40.99
21826;BME280;11075;47.944;11.776;2023-04-08T08:22:22;94948.31;;;3.21;39.68
21826;BME280;11075;47.944;11.776;2023-04-08T08:24:56;94943.00;;;2.97;40.11
21826;BME280;11075;47.944;11.776;2023-04-08T08:27:24;94961.84;;;3.91;38.75
21826;BME280;11075;47.944;11.776;2023-04-08T08:29:52;94941.91;;;3.65;39.19
21826;BME280;11075;47.944;11.776;2023-04-08T08:32:19;94958.94;;;3.69;38.76
21826;BME280;11075;47.944;11.776;2023-04-08T08:34:46;94946.09;;;2.81;40.79
21826;BME280;11075;47.944;11.776;2023-04-08T08:37:12;94979.38;;;2.05;40.98
21826;BME280;11075;47.944;11.776;2023-04-08T08:39:39;94952.25;;;0.89;44.26
21826;BME280;11075;47.944;11.776;2023-04-08T08:42:20;94969.19;;;1.78;42.49
21826;BME280;11075;47.944;11.776;2023-04-08T08:44:48;94944.56;;;0.88;43.87
21826;BME280;11075;47.944;11.776;2023-04-08T08:47:16;94964.59;;;1.34;43.18
21826;BME280;11075;47.944;11.776;2023-04-08T08:49:43;94969.41;;;2.26;41.56
21826;BME280;11075;47.944;11.776;2023-04-08T08:52:14;94978.34;;;2.01;41.92
21826;BME280;11075;47.944;11.776;2023-04-08T08:54:42;94970.34;;;2.06;41.48
21826;BME280;11075;47.944;11.776;2023-04-08T08:57:19;94977.88;;;2.33;41.08
21826;BME280;11075;47.944;11.776;2023-04-08T08:59:46;94975.06;;;1.75;41.74
21826;BME280;11075;47.944;11.776;2023-04-08T09:02:28;94973.72;;;2.85;40.90
21826;BME280;11075;47.944;11.776;2023-04-08T09:05:00;94979.50;;;1.20;43.16
21826;BME280;11075;47.944;11.776;2023-04-08T09:07:29;94985.63;;;1.85;42.01
21826;BME280;11075;47.944;11.776;2023-04-08T09:09:57;94988.59;;;2.18;41.33
21826;BME280;11075;47.944;11.776;2023-04-08T09:12:26;94976.94;;;2.82;40.47
21826;BME280;11075;47.944;11.776;2023-04-08T09:15:06;94984.63;;;1.71;41.24
21826;BME280;11075;47.944;11.776;2023-04-08T09:17:36;94994.81;;;2.03;40.79
21826;BME280;11075;47.944;11.776;2023-04-08T09:20:04;94992.94;;;1.59;41.97
21826;BME280;11075;47.944;11.776;2023-04-08T09:22:57;94993.94;;;2.86;39.78
21826;BME280;11075;47.944;11.776;2023-04-08T09:25:27;94987.84;;;0.58;43.21
21826;BME280;11075;47.944;11.776;2023-04-08T09:27:54;95000.19;;;1.23;41.88
21826;BME280;11075;47.944;11.776;2023-04-08T09:30:26;95003.53;;;1.54;41.41
21826;BME280;11075;47.944;11.776;2023-04-08T09:32:55;94984.84;;;1.05;42.41
21826;BME280;11075;47.944;11.776;2023-04-08T09:35:23;94995.16;;;1.91;41.17
21826;BME280;11075;47.944;11.776;2023-04-08T09:37:51;94995.75;;;1.78;41.81
21826;BME280;11075;47.944;11.776;2023-04-08T09:40:18;95009.25;;;2.70;39.68
21826;BME280;11075;47.944;11.776;2023-04-08T09:42:47;94996.78;;;2.65;39.98
21826;BME280;11075;47.944;11.776;2023-04-08T09:45:17;94981.16;;;2.20;41.22
21826;BME280;11075;47.944;11.776;2023-04-08T09:48:17;94970.19;;;2.60;41.25
21826;BME280;11075;47.944;11.776;2023-04-08T09:50:49;94999.75;;;3.64;39.08
21826;BME280;11075;47.944;11.776;2023-04-08T09:53:19;94998.38;;;4.10;38.56
21826;BME280;11075;47.944;11.776;2023-04-08T09:55:51;94993.41;;;3.60;38.84
21826;BME280;11075;47.944;11.776;2023-04-08T09:58:21;94999.53;;;3.37;39.23
21826;BME280;11075;47.944;11.776;2023-04-08T10:00:53;94976.06;;;2.91;41.54
21826;BME280;11075;47.944;11.776;2023-04-08T10:05:52;94986.81;;;1.54;42.83
21826;BME280;11075;47.944;11.776;2023-04-08T10:08:20;95015.75;;;4.63;38.07
21826;BME280;11075;47.944;11.776;2023-04-08T10:10:48;94983.94;;;3.49;39.38
21826;BME280;11075;47.944;11.776;2023-04-08T10:13:15;95006.84;;;3.74;39.11
21826;BME280;11075;47.944;11.776;2023-04-08T10:15:42;94991.88;;;2.77;41.17
21826;BME280;11075;47.944;11.776;2023-04-08T10:20:45;94993.31;;;3.70;39.61
21826;BME280;11075;47.944;11.776;2023-04-08T10:23:17;94981.78;;;2.40;41.04
21826;BME280;11075;47.944;11.776;2023-04-08T10:25:45;95012.84;;;2.84;39.73
21826;BME280;11075;47.944;11.776;2023-04-08T10:30:46;94979.03;;;1.77;41.91
21826;BME280;11075;47.944;11.776;2023-04-08T10:33:30;95007.13;;;3.25;39.95
21826;BME280;11075;47.944;11.776;2023-04-08T10:38:32;94990.13;;;3.44;39.98
21826;BME280;11075;47.944;11.776;2023-04-08T10:40:59;94967.75;;;2.98;41.48
21826;BME280;11075;47.944;11.776;2023-04-08T10:43:31;95003.56;;;4.38;39.68
21826;BME280;11075;47.944;11.776;2023-04-08T10:45:59;95002.34;;;3.93;39.28
21826;BME280;11075;47.944;11.776;2023-04-08T10:48:27;94988.41;;;4.34;39.58
21826;BME280;11075;47.944;11.776;2023-04-08T10:50:58;95014.66;;;4.97;37.59
21826;BME280;11075;47.944;11.776;2023-04-08T10:53:32;94990.56;;;3.75;39.75
21826;BME280;11075;47.944;11.776;2023-04-08T10:56:09;94990.56;;;3.75;39.21
21826;BME280;11075;47.944;11.776;2023-04-08T10:58:48;94983.56;;;4.55;39.60
21826;BME280;11075;47.944;11.776;2023-04-08T11:01:16;95013.56;;;5.58;36.76
21826;BME280;11075;47.944;11.776;2023-04-08T11:03:43;94982.47;;;4.56;38.17
21826;BME280;11075;47.944;11.776;2023-04-08T11:06:12;94955.78;;;2.95;41.36
21826;BME280;11075;47.944;11.776;2023-04-08T11:08:39;94987.19;;;3.70;39.22
21826;BME280;11075;47.944;11.776;2023-04-08T11:11:07;94973.22;;;3.78;39.86
21826;BME280;11075;47.944;11.776;2023-04-08T11:13:39;94954.53;;;1.86;43.24
21826;BME280;11075;47.944;11.776;2023-04-08T11:16:19;95000.66;;;3.31;40.28
21826;BME280;11075;47.944;11.776;2023-04-08T11:18:47;94978.69;;;2.62;41.14
21826;BME280;11075;47.944;11.776;2023-04-08T11:21:15;95010.41;;;3.64;38.78
21826;BME280;11075;47.944;11.776;2023-04-08T11:23:42;94978.84;;;3.05;40.36
21826;BME280;11075;47.944;11.776;2023-04-08T11:26:10;94973.78;;;2.45;41.62
21826;BME280;11075;47.944;11.776;2023-04-08T11:28:38;94999.81;;;4.39;38.44
21826;BME280;11075;47.944;11.776;2023-04-08T11:31:06;94979.69;;;3.48;40.39
21826;BME280;11075;47.944;11.776;2023-04-08T11:33:34;94986.22;;;3.13;40.20
21826;BME280;11075;47.944;11.776;2023-04-08T11:36:02;94968.84;;;2.63;41.79
21826;BME280;11075;47.944;11.776;2023-04-08T11:38:38;94970.41;;;1.41;42.61
21826;BME280;11075;47.944;11.776;2023-04-08T11:41:06;94998.97;;;3.16;39.79
21826;BME280;11075;47.944;11.776;2023-04-08T11:43:33;94990.78;;;1.61;42.71
21826;BME280;11075;47.944;11.776;2023-04-08T11:46:21;94999.66;;;2.35;41.33
21826;BME280;11075;47.944;11.776;2023-04-08T11:49:01;94998.53;;;2.41;41.65
21826;BME280;11075;47.944;11.776;2023-04-08T11:51:28;95012.06;;;3.60;39.65
21826;BME280;11075;47.944;11.776;2023-04-08T11:53:55;94999.38;;;3.52;39.22
21826;BME280;11075;47.944;11.776;2023-04-08T11:56:24;94985.66;;;1.80;41.41
21826;BME280;11075;47.944;11.776;2023-04-08T11:58:51;95000.91;;;3.34;40.11
21826;BME280;11075;47.944;11.776;2023-04-08T12:01:19;94990.66;;;2.31;41.01
21826;BME280;11075;47.944;11.776;2023-04-08T12:03:54;95006.34;;;3.72;39.03
21826;BME280;11075;47.944;11.776;2023-04-08T12:06:23;94989.22;;;2.77;40.44
21826;BME280;11075;47.944;11.776;2023-04-08T12:08:50;94988.09;;;3.36;39.83
21826;BME280;11075;47.944;11.776;2023-04-08T12:11:17;94990.34;;;3.24;39.69
21826;BME280;11075;47.944;11.776;2023-04-08T12:13:46;95004.94;;;4.17;38.65
21826;BME280;11075;47.944;11.776;2023-04-08T12:16:15;94986.28;;;3.32;39.65
21826;BME280;11075;47.944;11.776;2023-04-08T12:18:43;94986.34;;;2.74;41.33
21826;BME280;11075;47.944;11.776;2023-04-08T12:21:10;95008.22;;;3.48;39.70
21826;BME280;11075;47.944;11.776;2023-04-08T12:23:37;94991.78;;;2.88;41.21
21826;BME280;11075;47.944;11.776;2023-04-08T12:26:04;94988.75;;;2.36;41.33
21826;BME280;11075;47.944;11.776;2023-04-08T12:28:31;94987.56;;;2.13;41.83
21826;BME280;11075;47.944;11.776;2023-04-08T12:30:58;95026.50;;;4.39;38.41
21826;BME280;11075;47.944;11.776;2023-04-08T12:33:25;95005.31;;;4.11;39.16
21826;BME280;11075;47.944;11.776;2023-04-08T12:35:52;94997.16;;;3.59;40.23
21826;BME280;11075;47.944;11.776;2023-04-08T12:38:19;95004.53;;;2.23;42.78
21826;BME280;11075;47.944;11.776;2023-04-08T12:40:46;95018.44;;;2.09;41.99
21826;BME280;11075;47.944;11.776;2023-04-08T12:43:15;95016.44;;;1.86;43.12
21826;BME280;11075;47.944;11.776;2023-04-08T12:45:43;95004.16;;;1.95;42.69
21826;BME280;11075;47.944;11.776;2023-04-08T12:48:10;95011.56;;;2.03;42.62
21826;BME280;11075;47.944;11.776;2023-04-08T12:50:37;95026.03;;;2.26;42.21
21826;BME280;11075;47.944;11.776;2023-04-08T12:53:04;95030.06;;;1.74;42.54
21826;BME280;11075;47.944;11.776;2023-04-08T12:55:31;95025.94;;;1.97;42.32
21826;BME280;11075;47.944;11.776;2023-04-08T12:57:58;95022.94;;;3.16;39.97
21826;BME280;11075;47.944;11.776;2023-04-08T13:00:25;95025.13;;;1.37;43.64
21826;BME280;11075;47.944;11.776;2023-04-08T13:02:52;95033.72;;;2.72;41.41
21826;BME280;11075;47.944;11.776;2023-04-08T13:05:19;95025.88;;;2.86;40.70
21826;BME280;11075;47.944;11.776;2023-04-08T13:08:05;95020.09;;;3.55;39.89
21826;BME280;11075;47.944;11.776;2023-04-08T13:10:32;95032.09;;;2.37;41.98
21826;BME280;11075;47.944;11.776;2023-04-08T13:12:59;95027.94;;;2.94;40.63
21826;BME280;11075;47.944;11.776;2023-04-08T13:15:26;95032.22;;;2.56;41.61
21826;BME280;11075;47.944;11.776;2023-04-08T13:17:53;95025.28;;;2.21;42.86